sensor_id;sensor_type;location;lat;lon;timestamp;P1;durP1;ratioP1;P2;durP2;ratioP2
8632;SDS011;4354;49.832;10.746;2023-09-19T00:00:20;7.80;;;6.20;;
8632;SDS011;4354;49.832;10.746;2023-09-19T00:02:55;12.40;;;7.20;;
8632;SDS011;4354;49.832;10.746;2023-09-19T00:05:26;10.93;;;6.30;;
8632;SDS011;4354;49.832;10.746;2023-09-19T00:07:55;9.40;;;6.37;;
8632;SDS011;4354;49.832;10.746;2023-09-19T00:10:28;10.70;;;6.93;;
8632;SDS011;4354;49.832;10.746;2023-09-19T00:12:58;8.83;;;6.07;;
8632;SDS011;4354;49.832;10.746;2023-09-19T00:15:26;10.20;;;6.28;;
8632;SDS011;4354;49.832;10.746;2023-09-19T00:17:56;7.00;;;5.93;;
8632;SDS011;4354;49.832;10.746;2023-09-19T00:20:23;7.80;;;5.97;;
8632;SDS011;4354;49.832;10.746;2023-09-19T00:22:50;8.60;;;6.00;;
8632;SDS011;4354;49.832;10.746;2023-09-19T00:25:20;7.10;;;5.10;;
8632;SDS011;4354;49.832;10.746;2023-09-19T00:27:47;11.60;;;4.90;;
8632;SDS011;4354;49.832;10.746;2023-09-19T00:30:16;6.67;;;5.07;;
8632;SDS011;4354;49.832;10.746;2023-09-19T00:32:47;9.27;;;5.37;;
8632;SDS011;4354;49.832;10.746;2023-09-19T00:35:14;6.37;;;4.83;;
8632;SDS011;4354;49.832;10.746;2023-09-19T00:37:45;6.53;;;4.90;;
8632;SDS011;4354;49.832;10.746;2023-09-19T00:40:12;6.47;;;4.90;;
8632;SDS011;4354;49.832;10.746;2023-09-19T00:42:39;4.63;;;4.23;;
8632;SDS011;4354;49.832;10.746;2023-09-19T00:45:10;9.17;;;5.30;;
8632;SDS011;4354;49.832;10.746;2023-09-19T00:47:39;6.67;;;4.60;;
8632;SDS011;4354;49.832;10.746;2023-09-19T00:50:17;6.87;;;5.30;;
8632;SDS011;4354;49.832;10.746;2023-09-19T00:52:49;5.87;;;4.40;;
8632;SDS011;4354;49.832;10.746;2023-09-19T00:55:19;8.13;;;4.57;;
8632;SDS011;4354;49.832;10.746;2023-09-19T00:57:47;9.23;;;4.70;;
8632;SDS011;4354;49.832;10.746;2023-09-19T01:00:16;8.17;;;5.03;;
8632;SDS011;4354;49.832;10.746;2023-09-19T01:02:45;8.97;;;5.37;;
8632;SDS011;4354;49.832;10.746;2023-09-19T01:05:13;8.47;;;4.87;;
8632;SDS011;4354;49.832;10.746;2023-09-19T01:07:40;7.47;;;4.90;;
8632;SDS011;4354;49.832;10.746;2023-09-19T01:10:17;6.37;;;4.77;;
8632;SDS011;4354;49.832;10.746;2023-09-19T01:12:55;5.80;;;4.40;;
8632;SDS011;4354;49.832;10.746;2023-09-19T01:21:45;9.30;;;4.97;;
8632;SDS011;4354;49.832;10.746;2023-09-19T01:30:20;7.70;;;4.20;;
8632;SDS011;4354;49.832;10.746;2023-09-19T01:32:51;6.33;;;3.57;;
8632;SDS011;4354;49.832;10.746;2023-09-19T01:35:18;4.17;;;2.87;;
8632;SDS011;4354;49.832;10.746;2023-09-19T01:37:45;6.00;;;3.10;;
8632;SDS011;4354;49.832;10.746;2023-09-19T01:40:12;4.43;;;2.50;;
8632;SDS011;4354;49.832;10.746;2023-09-19T01:42:45;6.70;;;2.83;;
8632;SDS011;4354;49.832;10.746;2023-09-19T01:45:22;2.87;;;2.60;;
8632;SDS011;4354;49.832;10.746;2023-09-19T01:47:51;3.60;;;2.50;;
8632;SDS011;4354;49.832;10.746;2023-09-19T01:53:10;3.07;;;2.07;;
8632;SDS011;4354;49.832;10.746;2023-09-19T01:56:00;3.80;;;2.00;;
8632;SDS011;4354;49.832;10.746;2023-09-19T01:58:51;3.27;;;2.30;;
8632;SDS011;4354;49.832;10.746;2023-09-19T02:01:22;2.50;;;2.10;;
8632;SDS011;4354;49.832;10.746;2023-09-19T02:03:51;3.47;;;2.20;;
8632;SDS011;4354;49.832;10.746;2023-09-19T02:06:19;3.27;;;2.20;;
8632;SDS011;4354;49.832;10.746;2023-09-19T02:08:47;4.60;;;2.03;;
8632;SDS011;4354;49.832;10.746;2023-09-19T02:11:15;4.27;;;1.97;;
8632;SDS011;4354;49.832;10.746;2023-09-19T02:13:42;3.40;;;2.00;;
8632;SDS011;4354;49.832;10.746;2023-09-19T02:16:09;5.07;;;1.97;;
8632;SDS011;4354;49.832;10.746;2023-09-19T02:18:38;3.10;;;2.03;;
8632;SDS011;4354;49.832;10.746;2023-09-19T02:21:05;2.77;;;2.10;;
8632;SDS011;4354;49.832;10.746;2023-09-19T02:23:36;2.87;;;2.00;;
8632;SDS011;4354;49.832;10.746;2023-09-19T02:26:03;3.20;;;2.00;;
8632;SDS011;4354;49.832;10.746;2023-09-19T02:28:30;2.67;;;1.90;;
8632;SDS011;4354;49.832;10.746;2023-09-19T02:30:58;4.82;;;1.90;;
8632;SDS011;4354;49.832;10.746;2023-09-19T02:33:25;3.03;;;2.00;;
8632;SDS011;4354;49.832;10.746;2023-09-19T02:35:56;2.20;;;1.90;;
8632;SDS011;4354;49.832;10.746;2023-09-19T02:38:27;4.17;;;2.10;;
8632;SDS011;4354;49.832;10.746;2023-09-19T02:40:55;3.47;;;1.90;;
8632;SDS011;4354;49.832;10.746;2023-09-19T02:43:22;3.17;;;1.90;;
8632;SDS011;4354;49.832;10.746;2023-09-19T02:45:49;2.30;;;1.70;;
8632;SDS011;4354;49.832;10.746;2023-09-19T02:48:17;2.83;;;1.83;;
8632;SDS011;4354;49.832;10.746;2023-09-19T02:50:44;5.70;;;2.20;;
8632;SDS011;4354;49.832;10.746;2023-09-19T02:53:14;8.10;;;2.43;;
8632;SDS011;4354;49.832;10.746;2023-09-19T02:55:41;2.80;;;2.10;;
8632;SDS011;4354;49.832;10.746;2023-09-19T02:58:09;3.53;;;2.07;;
8632;SDS011;4354;49.832;10.746;2023-09-19T03:00:37;3.40;;;2.20;;
8632;SDS011;4354;49.832;10.746;2023-09-19T03:03:05;4.03;;;1.77;;
8632;SDS011;4354;49.832;10.746;2023-09-19T03:05:32;3.83;;;1.90;;
8632;SDS011;4354;49.832;10.746;2023-09-19T03:07:59;4.65;;;2.17;;
8632;SDS011;4354;49.832;10.746;2023-09-19T03:10:30;4.10;;;2.20;;
8632;SDS011;4354;49.832;10.746;2023-09-19T03:12:57;4.30;;;2.67;;
8632;SDS011;4354;49.832;10.746;2023-09-19T03:15:26;2.67;;;2.47;;
8632;SDS011;4354;49.832;10.746;2023-09-19T03:17:53;4.77;;;2.63;;
8632;SDS011;4354;49.832;10.746;2023-09-19T03:20:20;2.70;;;2.25;;
8632;SDS011;4354;49.832;10.746;2023-09-19T03:22:47;3.20;;;2.30;;
8632;SDS011;4354;49.832;10.746;2023-09-19T03:25:14;3.47;;;2.60;;
8632;SDS011;4354;49.832;10.746;2023-09-19T03:27:44;7.57;;;2.75;;
8632;SDS011;4354;49.832;10.746;2023-09-19T03:30:10;4.30;;;2.80;;
8632;SDS011;4354;49.832;10.746;2023-09-19T03:32:43;3.75;;;2.30;;
8632;SDS011;4354;49.832;10.746;2023-09-19T03:35:16;2.78;;;2.28;;
8632;SDS011;4354;49.832;10.746;2023-09-19T03:37:44;5.22;;;2.50;;
8632;SDS011;4354;49.832;10.746;2023-09-19T03:40:11;3.45;;;2.53;;
8632;SDS011;4354;49.832;10.746;2023-09-19T03:42:42;3.58;;;2.60;;
8632;SDS011;4354;49.832;10.746;2023-09-19T03:45:09;3.40;;;2.33;;
8632;SDS011;4354;49.832;10.746;2023-09-19T03:47:39;3.88;;;2.67;;
8632;SDS011;4354;49.832;10.746;2023-09-19T03:50:07;2.75;;;2.13;;
8632;SDS011;4354;49.832;10.746;2023-09-19T03:52:34;3.35;;;2.60;;
8632;SDS011;4354;49.832;10.746;2023-09-19T03:55:01;7.25;;;2.72;;
8632;SDS011;4354;49.832;10.746;2023-09-19T03:57:30;4.07;;;2.95;;
8632;SDS011;4354;49.832;10.746;2023-09-19T03:59:57;2.67;;;2.38;;
8632;SDS011;4354;49.832;10.746;2023-09-19T04:02:24;5.72;;;3.50;;
8632;SDS011;4354;49.832;10.746;2023-09-19T04:04:52;4.35;;;3.70;;
8632;SDS011;4354;49.832;10.746;2023-09-19T04:07:19;4.43;;;4.03;;
8632;SDS011;4354;49.832;10.746;2023-09-19T04:09:49;4.63;;;4.20;;
8632;SDS011;4354;49.832;10.746;2023-09-19T04:12:16;6.20;;;3.95;;
8632;SDS011;4354;49.832;10.746;2023-09-19T04:14:48;5.45;;;3.92;;
8632;SDS011;4354;49.832;10.746;2023-09-19T04:17:16;7.80;;;4.45;;
8632;SDS011;4354;49.832;10.746;2023-09-19T04:19:43;6.15;;;4.60;;
8632;SDS011;4354;49.832;10.746;2023-09-19T04:22:12;4.32;;;3.90;;
8632;SDS011;4354;49.832;10.746;2023-09-19T04:24:39;5.60;;;4.40;;
8632;SDS011;4354;49.832;10.746;2023-09-19T04:27:06;8.35;;;4.30;;
8632;SDS011;4354;49.832;10.746;2023-09-19T04:29:33;9.52;;;4.25;;
8632;SDS011;4354;49.832;10.746;2023-09-19T04:32:01;4.22;;;3.83;;
8632;SDS011;4354;49.832;10.746;2023-09-19T04:34:30;4.57;;;4.18;;
8632;SDS011;4354;49.832;10.746;2023-09-19T04:36:57;4.30;;;3.95;;
8632;SDS011;4354;49.832;10.746;2023-09-19T04:39:26;6.05;;;4.50;;
8632;SDS011;4354;49.832;10.746;2023-09-19T04:41:53;4.60;;;4.18;;
8632;SDS011;4354;49.832;10.746;2023-09-19T04:44:21;4.85;;;4.35;;
8632;SDS011;4354;49.832;10.746;2023-09-19T04:46:47;6.90;;;4.72;;
8632;SDS011;4354;49.832;10.746;2023-09-19T04:49:14;5.18;;;4.78;;
8632;SDS011;4354;49.832;10.746;2023-09-19T04:51:41;5.35;;;4.32;;
8632;SDS011;4354;49.832;10.746;2023-09-19T04:54:08;5.30;;;4.40;;
8632;SDS011;4354;49.832;10.746;2023-09-19T04:56:35;5.38;;;4.82;;
8632;SDS011;4354;49.832;10.746;2023-09-19T04:59:02;4.47;;;4.07;;
8632;SDS011;4354;49.832;10.746;2023-09-19T05:01:29;5.75;;;4.35;;
8632;SDS011;4354;49.832;10.746;2023-09-19T05:03:56;6.50;;;4.03;;
8632;SDS011;4354;49.832;10.746;2023-09-19T05:06:23;4.43;;;4.03;;
8632;SDS011;4354;49.832;10.746;2023-09-19T05:08:49;4.32;;;3.90;;
8632;SDS011;4354;49.832;10.746;2023-09-19T05:11:19;3.70;;;3.38;;
8632;SDS011;4354;49.832;10.746;2023-09-19T05:13:48;3.65;;;3.42;;
8632;SDS011;4354;49.832;10.746;2023-09-19T05:16:19;3.90;;;3.50;;
8632;SDS011;4354;49.832;10.746;2023-09-19T05:18:46;3.53;;;3.30;;
8632;SDS011;4354;49.832;10.746;2023-09-19T05:21:12;4.38;;;2.90;;
8632;SDS011;4354;49.832;10.746;2023-09-19T05:23:39;3.15;;;2.85;;
8632;SDS011;4354;49.832;10.746;2023-09-19T05:26:07;3.67;;;3.10;;
8632;SDS011;4354;49.832;10.746;2023-09-19T05:28:34;2.72;;;2.53;;
8632;SDS011;4354;49.832;10.746;2023-09-19T05:31:02;3.47;;;3.03;;
8632;SDS011;4354;49.832;10.746;2023-09-19T05:33:29;3.38;;;3.08;;
8632;SDS011;4354;49.832;10.746;2023-09-19T05:35:58;6.70;;;2.95;;
8632;SDS011;4354;49.832;10.746;2023-09-19T05:38:25;3.28;;;2.97;;
8632;SDS011;4354;49.832;10.746;2023-09-19T05:40:54;4.57;;;2.95;;
8632;SDS011;4354;49.832;10.746;2023-09-19T05:43:21;5.05;;;2.40;;
8632;SDS011;4354;49.832;10.746;2023-09-19T05:45:48;2.95;;;2.33;;
8632;SDS011;4354;49.832;10.746;2023-09-19T05:48:18;5.80;;;2.60;;
8632;SDS011;4354;49.832;10.746;2023-09-19T05:50:47;3.83;;;2.70;;
8632;SDS011;4354;49.832;10.746;2023-09-19T05:53:15;4.00;;;2.92;;
8632;SDS011;4354;49.832;10.746;2023-09-19T05:55:42;3.08;;;2.83;;
8632;SDS011;4354;49.832;10.746;2023-09-19T05:58:09;3.30;;;2.67;;
8632;SDS011;4354;49.832;10.746;2023-09-19T06:00:36;3.63;;;3.30;;
8632;SDS011;4354;49.832;10.746;2023-09-19T06:03:05;3.08;;;2.85;;
8632;SDS011;4354;49.832;10.746;2023-09-19T06:05:32;3.72;;;3.28;;
8632;SDS011;4354;49.832;10.746;2023-09-19T06:07:59;4.03;;;3.20;;
8632;SDS011;4354;49.832;10.746;2023-09-19T06:10:27;3.83;;;3.08;;
8632;SDS011;4354;49.832;10.746;2023-09-19T06:12:55;4.32;;;3.20;;
8632;SDS011;4354;49.832;10.746;2023-09-19T06:15:24;4.60;;;3.55;;
8632;SDS011;4354;49.832;10.746;2023-09-19T06:17:53;4.30;;;3.13;;
8632;SDS011;4354;49.832;10.746;2023-09-19T06:20:22;4.97;;;2.90;;
8632;SDS011;4354;49.832;10.746;2023-09-19T06:22:50;5.15;;;3.47;;
8632;SDS011;4354;49.832;10.746;2023-09-19T06:25:18;3.33;;;2.95;;
8632;SDS011;4354;49.832;10.746;2023-09-19T06:27:46;3.20;;;2.33;;
8632;SDS011;4354;49.832;10.746;2023-09-19T06:30:21;3.15;;;2.25;;
8632;SDS011;4354;49.832;10.746;2023-09-19T06:32:56;4.20;;;1.90;;
8632;SDS011;4354;49.832;10.746;2023-09-19T06:35:23;3.38;;;2.03;;
8632;SDS011;4354;49.832;10.746;2023-09-19T06:37:52;4.07;;;1.95;;
8632;SDS011;4354;49.832;10.746;2023-09-19T06:40:19;3.58;;;1.95;;
8632;SDS011;4354;49.832;10.746;2023-09-19T06:42:46;2.38;;;1.83;;
8632;SDS011;4354;49.832;10.746;2023-09-19T06:45:16;3.13;;;2.08;;
8632;SDS011;4354;49.832;10.746;2023-09-19T06:47:46;2.67;;;1.50;;
8632;SDS011;4354;49.832;10.746;2023-09-19T06:50:17;3.55;;;1.83;;
8632;SDS011;4354;49.832;10.746;2023-09-19T06:52:46;3.78;;;1.73;;
8632;SDS011;4354;49.832;10.746;2023-09-19T06:55:17;2.88;;;1.77;;
8632;SDS011;4354;49.832;10.746;2023-09-19T06:57:48;4.20;;;1.67;;
8632;SDS011;4354;49.832;10.746;2023-09-19T07:00:15;3.78;;;1.80;;
8632;SDS011;4354;49.832;10.746;2023-09-19T07:02:55;2.70;;;1.77;;
8632;SDS011;4354;49.832;10.746;2023-09-19T07:05:31;3.25;;;1.85;;
8632;SDS011;4354;49.832;10.746;2023-09-19T07:07:59;3.42;;;1.85;;
8632;SDS011;4354;49.832;10.746;2023-09-19T07:10:27;3.25;;;1.90;;
8632;SDS011;4354;49.832;10.746;2023-09-19T07:12:58;2.08;;;1.70;;
8632;SDS011;4354;49.832;10.746;2023-09-19T07:15:26;1.75;;;1.55;;
8632;SDS011;4354;49.832;10.746;2023-09-19T07:17:54;4.65;;;1.65;;
8632;SDS011;4354;49.832;10.746;2023-09-19T07:20:23;4.30;;;1.80;;
8632;SDS011;4354;49.832;10.746;2023-09-19T07:22:54;3.85;;;1.92;;
8632;SDS011;4354;49.832;10.746;2023-09-19T07:25:21;2.78;;;1.83;;
8632;SDS011;4354;49.832;10.746;2023-09-19T07:27:49;4.20;;;1.90;;
8632;SDS011;4354;49.832;10.746;2023-09-19T07:30:17;3.40;;;1.80;;
8632;SDS011;4354;49.832;10.746;2023-09-19T07:32:44;3.13;;;1.65;;
8632;SDS011;4354;49.832;10.746;2023-09-19T07:35:11;2.72;;;1.60;;
8632;SDS011;4354;49.832;10.746;2023-09-19T07:37:38;2.45;;;1.55;;
8632;SDS011;4354;49.832;10.746;2023-09-19T07:40:05;4.93;;;1.90;;
8632;SDS011;4354;49.832;10.746;2023-09-19T07:42:38;2.38;;;1.60;;
8632;SDS011;4354;49.832;10.746;2023-09-19T07:45:07;2.80;;;1.70;;
8632;SDS011;4354;49.832;10.746;2023-09-19T07:47:34;1.80;;;1.60;;
8632;SDS011;4354;49.832;10.746;2023-09-19T07:50:02;3.75;;;1.75;;
8632;SDS011;4354;49.832;10.746;2023-09-19T07:52:29;3.25;;;1.88;;
8632;SDS011;4354;49.832;10.746;2023-09-19T07:54:56;2.75;;;1.60;;
8632;SDS011;4354;49.832;10.746;2023-09-19T07:57:27;3.38;;;1.83;;
8632;SDS011;4354;49.832;10.746;2023-09-19T07:59:55;3.60;;;1.58;;
8632;SDS011;4354;49.832;10.746;2023-09-19T08:02:21;4.63;;;1.98;;
8632;SDS011;4354;49.832;10.746;2023-09-19T08:04:49;3.92;;;1.80;;
8632;SDS011;4354;49.832;10.746;2023-09-19T08:07:16;2.45;;;1.70;;
8632;SDS011;4354;49.832;10.746;2023-09-19T08:09:42;2.33;;;1.60;;
8632;SDS011;4354;49.832;10.746;2023-09-19T08:12:12;1.90;;;1.50;;
8632;SDS011;4354;49.832;10.746;2023-09-19T08:14:41;1.75;;;1.50;;
8632;SDS011;4354;49.832;10.746;2023-09-19T08:17:08;4.30;;;1.75;;
8632;SDS011;4354;49.832;10.746;2023-09-19T08:19:35;3.88;;;1.50;;
8632;SDS011;4354;49.832;10.746;2023-09-19T08:22:02;3.03;;;1.48;;
8632;SDS011;4354;49.832;10.746;2023-09-19T08:24:29;3.78;;;1.75;;
8632;SDS011;4354;49.832;10.746;2023-09-19T08:26:57;2.60;;;1.42;;
8632;SDS011;4354;49.832;10.746;2023-09-19T08:29:24;1.77;;;1.20;;
8632;SDS011;4354;49.832;10.746;2023-09-19T08:31:54;1.75;;;1.30;;
8632;SDS011;4354;49.832;10.746;2023-09-19T08:34:22;3.85;;;1.55;;
8632;SDS011;4354;49.832;10.746;2023-09-19T08:36:51;3.85;;;1.50;;
8632;SDS011;4354;49.832;10.746;2023-09-19T08:39:19;3.20;;;1.48;;
8632;SDS011;4354;49.832;10.746;2023-09-19T08:41:45;6.03;;;1.42;;
8632;SDS011;4354;49.832;10.746;2023-09-19T08:44:12;2.83;;;1.60;;
8632;SDS011;4354;49.832;10.746;2023-09-19T08:46:41;2.22;;;1.08;;
8632;SDS011;4354;49.832;10.746;2023-09-19T08:49:10;3.80;;;1.50;;
8632;SDS011;4354;49.832;10.746;2023-09-19T08:51:59;2.60;;;1.17;;
8632;SDS011;4354;49.832;10.746;2023-09-19T08:54:37;2.13;;;1.48;;
8632;SDS011;4354;49.832;10.746;2023-09-19T08:57:07;2.95;;;1.60;;
8632;SDS011;4354;49.832;10.746;2023-09-19T08:59:38;3.25;;;1.70;;
8632;SDS011;4354;49.832;10.746;2023-09-19T09:02:12;4.10;;;1.52;;
8632;SDS011;4354;49.832;10.746;2023-09-19T09:04:40;4.05;;;1.80;;
8632;SDS011;4354;49.832;10.746;2023-09-19T09:07:12;3.45;;;1.52;;
8632;SDS011;4354;49.832;10.746;2023-09-19T09:09:39;3.15;;;1.50;;
8632;SDS011;4354;49.832;10.746;2023-09-19T09:12:11;3.42;;;1.40;;
8632;SDS011;4354;49.832;10.746;2023-09-19T09:14:39;3.00;;;1.73;;
8632;SDS011;4354;49.832;10.746;2023-09-19T09:17:11;4.75;;;1.40;;
8632;SDS011;4354;49.832;10.746;2023-09-19T09:19:39;2.85;;;1.33;;
8632;SDS011;4354;49.832;10.746;2023-09-19T09:22:09;5.72;;;1.70;;
8632;SDS011;4354;49.832;10.746;2023-09-19T09:24:37;3.35;;;1.63;;
8632;SDS011;4354;49.832;10.746;2023-09-19T09:27:16;3.63;;;1.30;;
8632;SDS011;4354;49.832;10.746;2023-09-19T09:29:45;4.07;;;1.52;;
8632;SDS011;4354;49.832;10.746;2023-09-19T09:34:51;4.88;;;1.60;;
8632;SDS011;4354;49.832;10.746;2023-09-19T09:37:24;4.72;;;1.30;;
8632;SDS011;4354;49.832;10.746;2023-09-19T09:39:55;4.22;;;1.35;;
8632;SDS011;4354;49.832;10.746;2023-09-19T09:42:34;4.75;;;1.40;;
8632;SDS011;4354;49.832;10.746;2023-09-19T09:45:21;3.00;;;1.33;;
8632;SDS011;4354;49.832;10.746;2023-09-19T09:48:04;3.20;;;1.30;;
8632;SDS011;4354;49.832;10.746;2023-09-19T09:50:48;4.70;;;1.42;;
8632;SDS011;4354;49.832;10.746;2023-09-19T09:53:27;4.28;;;1.40;;
8632;SDS011;4354;49.832;10.746;2023-09-19T09:55:59;4.50;;;1.48;;
8632;SDS011;4354;49.832;10.746;2023-09-19T09:58:33;4.53;;;1.77;;
8632;SDS011;4354;49.832;10.746;2023-09-19T10:01:05;4.82;;;1.50;;
8632;SDS011;4354;49.832;10.746;2023-09-19T10:03:39;4.60;;;1.50;;
8632;SDS011;4354;49.832;10.746;2023-09-19T10:06:07;3.40;;;1.35;;
8632;SDS011;4354;49.832;10.746;2023-09-19T10:09:02;3.65;;;1.50;;
8632;SDS011;4354;49.832;10.746;2023-09-19T10:12:05;2.65;;;1.27;;
8632;SDS011;4354;49.832;10.746;2023-09-19T10:14:35;4.22;;;1.48;;
8632;SDS011;4354;49.832;10.746;2023-09-19T10:17:05;4.95;;;1.50;;
8632;SDS011;4354;49.832;10.746;2023-09-19T10:22:24;5.80;;;1.60;;
8632;SDS011;4354;49.832;10.746;2023-09-19T10:24:53;2.67;;;1.25;;
8632;SDS011;4354;49.832;10.746;2023-09-19T10:27:28;5.45;;;1.55;;
8632;SDS011;4354;49.832;10.746;2023-09-19T10:30:02;3.53;;;1.60;;
8632;SDS011;4354;49.832;10.746;2023-09-19T10:32:34;4.20;;;1.65;;
8632;SDS011;4354;49.832;10.746;2023-09-19T10:35:02;3.35;;;1.65;;
8632;SDS011;4354;49.832;10.746;2023-09-19T10:37:33;2.83;;;1.55;;
8632;SDS011;4354;49.832;10.746;2023-09-19T10:40:04;3.45;;;1.60;;
8632;SDS011;4354;49.832;10.746;2023-09-19T10:42:35;3.53;;;1.65;;
8632;SDS011;4354;49.832;10.746;2023-09-19T10:45:07;2.33;;;1.33;;
8632;SDS011;4354;49.832;10.746;2023-09-19T10:47:39;4.60;;;1.65;;
8632;SDS011;4354;49.832;10.746;2023-09-19T10:50:06;3.80;;;1.33;;
8632;SDS011;4354;49.832;10.746;2023-09-19T10:52:37;6.35;;;1.70;;
8632;SDS011;4354;49.832;10.746;2023-09-19T10:55:08;3.63;;;1.60;;
8632;SDS011;4354;49.832;10.746;2023-09-19T10:57:43;2.58;;;1.60;;
8632;SDS011;4354;49.832;10.746;2023-09-19T11:00:11;4.57;;;1.27;;
8632;SDS011;4354;49.832;10.746;2023-09-19T11:05:36;3.67;;;1.60;;
8632;SDS011;4354;49.832;10.746;2023-09-19T11:08:07;3.20;;;1.70;;
8632;SDS011;4354;49.832;10.746;2023-09-19T11:10:46;2.85;;;1.55;;
8632;SDS011;4354;49.832;10.746;2023-09-19T11:13:28;2.10;;;1.30;;
8632;SDS011;4354;49.832;10.746;2023-09-19T11:26:51;2.67;;;1.42;;
8632;SDS011;4354;49.832;10.746;2023-09-19T11:29:35;3.00;;;1.42;;
8632;SDS011;4354;49.832;10.746;2023-09-19T11:32:03;3.15;;;1.15;;
8632;SDS011;4354;49.832;10.746;2023-09-19T11:42:43;3.53;;;1.25;;
8632;SDS011;4354;49.832;10.746;2023-09-19T11:48:15;3.15;;;1.40;;
8632;SDS011;4354;49.832;10.746;2023-09-19T11:50:45;2.50;;;1.15;;
8632;SDS011;4354;49.832;10.746;2023-09-19T11:53:13;4.63;;;1.73;;
8632;SDS011;4354;49.832;10.746;2023-09-19T11:55:42;3.10;;;1.45;;
8632;SDS011;4354;49.832;10.746;2023-09-19T11:58:10;3.28;;;1.40;;
8632;SDS011;4354;49.832;10.746;2023-09-19T12:00:40;3.08;;;1.20;;
8632;SDS011;4354;49.832;10.746;2023-09-19T12:03:10;3.42;;;1.50;;
8632;SDS011;4354;49.832;10.746;2023-09-19T12:05:40;2.85;;;1.30;;
8632;SDS011;4354;49.832;10.746;2023-09-19T12:08:07;4.25;;;1.63;;
8632;SDS011;4354;49.832;10.746;2023-09-19T12:10:45;5.53;;;1.85;;
8632;SDS011;4354;49.832;10.746;2023-09-19T12:13:17;2.33;;;1.23;;
8632;SDS011;4354;49.832;10.746;2023-09-19T12:15:45;3.88;;;1.42;;
8632;SDS011;4354;49.832;10.746;2023-09-19T12:18:27;3.63;;;1.35;;
8632;SDS011;4354;49.832;10.746;2023-09-19T12:20:54;3.80;;;1.63;;
8632;SDS011;4354;49.832;10.746;2023-09-19T12:23:22;3.50;;;1.70;;
8632;SDS011;4354;49.832;10.746;2023-09-19T12:25:49;2.25;;;1.58;;
8632;SDS011;4354;49.832;10.746;2023-09-19T12:28:19;4.88;;;1.52;;
8632;SDS011;4354;49.832;10.746;2023-09-19T12:30:48;3.47;;;1.67;;
8632;SDS011;4354;49.832;10.746;2023-09-19T12:33:16;2.10;;;1.25;;
8632;SDS011;4354;49.832;10.746;2023-09-19T12:35:45;4.78;;;1.40;;
8632;SDS011;4354;49.832;10.746;2023-09-19T12:38:26;2.13;;;1.40;;
8632;SDS011;4354;49.832;10.746;2023-09-19T12:41:01;3.13;;;1.70;;
8632;SDS011;4354;49.832;10.746;2023-09-19T12:43:29;5.18;;;1.50;;
8632;SDS011;4354;49.832;10.746;2023-09-19T12:45:59;6.35;;;1.55;;
8632;SDS011;4354;49.832;10.746;2023-09-19T12:48:26;3.80;;;1.55;;
8632;SDS011;4354;49.832;10.746;2023-09-19T12:51:04;2.53;;;1.45;;
8632;SDS011;4354;49.832;10.746;2023-09-19T12:53:33;4.10;;;1.50;;
8632;SDS011;4354;49.832;10.746;2023-09-19T12:56:08;2.40;;;1.50;;
8632;SDS011;4354;49.832;10.746;2023-09-19T13:01:29;1.77;;;1.30;;
8632;SDS011;4354;49.832;10.746;2023-09-19T13:04:16;3.60;;;1.40;;
8632;SDS011;4354;49.832;10.746;2023-09-19T13:06:50;3.05;;;1.40;;
8632;SDS011;4354;49.832;10.746;2023-09-19T13:09:22;4.40;;;1.50;;
8632;SDS011;4354;49.832;10.746;2023-09-19T13:11:54;2.03;;;1.40;;
8632;SDS011;4354;49.832;10.746;2023-09-19T13:17:04;1.67;;;1.10;;
8632;SDS011;4354;49.832;10.746;2023-09-19T13:19:46;3.25;;;1.40;;
8632;SDS011;4354;49.832;10.746;2023-09-19T13:22:37;2.13;;;1.20;;
8632;SDS011;4354;49.832;10.746;2023-09-19T13:25:10;5.15;;;1.55;;
8632;SDS011;4354;49.832;10.746;2023-09-19T13:27:45;4.03;;;1.33;;
8632;SDS011;4354;49.832;10.746;2023-09-19T13:30:18;3.72;;;1.48;;
8632;SDS011;4354;49.832;10.746;2023-09-19T13:32:45;6.95;;;1.50;;
8632;SDS011;4354;49.832;10.746;2023-09-19T13:35:14;4.03;;;1.42;;
8632;SDS011;4354;49.832;10.746;2023-09-19T13:37:42;3.40;;;1.35;;
8632;SDS011;4354;49.832;10.746;2023-09-19T13:40:11;2.58;;;1.38;;
8632;SDS011;4354;49.832;10.746;2023-09-19T13:42:40;3.65;;;1.73;;
8632;SDS011;4354;49.832;10.746;2023-09-19T13:45:08;4.15;;;1.38;;
8632;SDS011;4354;49.832;10.746;2023-09-19T13:47:41;2.13;;;1.25;;
8632;SDS011;4354;49.832;10.746;2023-09-19T13:50:09;3.33;;;1.42;;
8632;SDS011;4354;49.832;10.746;2023-09-19T13:52:36;2.58;;;1.40;;
8632;SDS011;4354;49.832;10.746;2023-09-19T13:55:04;4.10;;;1.52;;
8632;SDS011;4354;49.832;10.746;2023-09-19T13:57:33;2.78;;;1.40;;
8632;SDS011;4354;49.832;10.746;2023-09-19T14:00:00;2.88;;;1.50;;
8632;SDS011;4354;49.832;10.746;2023-09-19T14:02:26;3.58;;;1.65;;
8632;SDS011;4354;49.832;10.746;2023-09-19T14:04:54;4.55;;;1.52;;
8632;SDS011;4354;49.832;10.746;2023-09-19T14:07:21;1.30;;;1.02;;
8632;SDS011;4354;49.832;10.746;2023-09-19T14:09:48;4.53;;;1.60;;
8632;SDS011;4354;49.832;10.746;2023-09-19T14:12:14;1.73;;;1.23;;
8632;SDS011;4354;49.832;10.746;2023-09-19T14:14:42;2.67;;;1.40;;
8632;SDS011;4354;49.832;10.746;2023-09-19T14:17:09;5.00;;;1.60;;
8632;SDS011;4354;49.832;10.746;2023-09-19T14:19:36;4.53;;;1.48;;
8632;SDS011;4354;49.832;10.746;2023-09-19T14:22:04;2.35;;;1.38;;
8632;SDS011;4354;49.832;10.746;2023-09-19T14:24:34;2.88;;;1.30;;
8632;SDS011;4354;49.832;10.746;2023-09-19T14:27:02;2.35;;;1.27;;
8632;SDS011;4354;49.832;10.746;2023-09-19T14:29:30;2.20;;;1.27;;
8632;SDS011;4354;49.832;10.746;2023-09-19T14:31:58;6.38;;;1.60;;
8632;SDS011;4354;49.832;10.746;2023-09-19T14:34:25;3.25;;;1.48;;
8632;SDS011;4354;49.832;10.746;2023-09-19T14:36:52;2.20;;;1.38;;
8632;SDS011;4354;49.832;10.746;2023-09-19T14:39:20;2.47;;;1.38;;
8632;SDS011;4354;49.832;10.746;2023-09-19T14:41:47;2.60;;;1.50;;
8632;SDS011;4354;49.832;10.746;2023-09-19T14:44:14;3.35;;;1.58;;
8632;SDS011;4354;49.832;10.746;2023-09-19T14:46:44;5.68;;;1.25;;
8632;SDS011;4354;49.832;10.746;2023-09-19T14:49:11;3.40;;;1.55;;
8632;SDS011;4354;49.832;10.746;2023-09-19T14:51:38;2.35;;;1.25;;
8632;SDS011;4354;49.832;10.746;2023-09-19T14:54:10;3.78;;;1.13;;
8632;SDS011;4354;49.832;10.746;2023-09-19T14:56:37;3.00;;;1.58;;
8632;SDS011;4354;49.832;10.746;2023-09-19T14:59:04;3.10;;;1.65;;
8632;SDS011;4354;49.832;10.746;2023-09-19T15:01:33;3.65;;;1.45;;
8632;SDS011;4354;49.832;10.746;2023-09-19T15:04:00;3.78;;;1.50;;
8632;SDS011;4354;49.832;10.746;2023-09-19T15:06:28;4.18;;;1.55;;
8632;SDS011;4354;49.832;10.746;2023-09-19T15:08:55;3.85;;;1.40;;
8632;SDS011;4354;49.832;10.746;2023-09-19T15:11:21;4.93;;;1.30;;
8632;SDS011;4354;49.832;10.746;2023-09-19T15:13:51;2.25;;;1.38;;
8632;SDS011;4354;49.832;10.746;2023-09-19T15:16:19;5.95;;;1.45;;
8632;SDS011;4354;49.832;10.746;2023-09-19T15:18:46;5.07;;;1.60;;
8632;SDS011;4354;49.832;10.746;2023-09-19T15:21:18;3.83;;;1.13;;
8632;SDS011;4354;49.832;10.746;2023-09-19T15:23:45;2.25;;;1.08;;
8632;SDS011;4354;49.832;10.746;2023-09-19T15:26:13;3.80;;;1.55;;
8632;SDS011;4354;49.832;10.746;2023-09-19T15:28:43;2.10;;;1.17;;
8632;SDS011;4354;49.832;10.746;2023-09-19T15:31:11;5.00;;;1.35;;
8632;SDS011;4354;49.832;10.746;2023-09-19T15:33:39;2.85;;;1.23;;
8632;SDS011;4354;49.832;10.746;2023-09-19T15:36:07;2.20;;;1.10;;
8632;SDS011;4354;49.832;10.746;2023-09-19T15:41:38;2.92;;;1.27;;
8632;SDS011;4354;49.832;10.746;2023-09-19T15:44:14;2.70;;;1.17;;
8632;SDS011;4354;49.832;10.746;2023-09-19T15:46:42;1.73;;;1.13;;
8632;SDS011;4354;49.832;10.746;2023-09-19T15:49:10;2.35;;;1.15;;
8632;SDS011;4354;49.832;10.746;2023-09-19T15:51:38;2.90;;;1.35;;
8632;SDS011;4354;49.832;10.746;2023-09-19T15:54:07;4.00;;;1.45;;
8632;SDS011;4354;49.832;10.746;2023-09-19T15:56:37;1.83;;;1.20;;
8632;SDS011;4354;49.832;10.746;2023-09-19T15:59:03;2.83;;;1.27;;
8632;SDS011;4354;49.832;10.746;2023-09-19T16:01:30;4.25;;;1.45;;
8632;SDS011;4354;49.832;10.746;2023-09-19T16:03:57;2.33;;;1.50;;
8632;SDS011;4354;49.832;10.746;2023-09-19T16:06:25;3.22;;;1.10;;
8632;SDS011;4354;49.832;10.746;2023-09-19T16:08:56;4.03;;;1.42;;